Thunder radar more information blitzortung!


Radar de pluja more information rain snow radar


Visita la nostra xarxa de llocs de meteo:

Template documentation
and downloads

And another site



No particular awareness of the weather is required.    There are no Weather-warnings

Pagina Historial Weather Underground text

Diari Resum Juliol 8, 2017 Unitats:  Tant    Imperial   Mètric
« Previous Dia
SegĂźent Dia »
Diari Setmana Mensual Anual Personalitzada
  Maxima: Minima: Media:
Temperatura: 81.9 °F /  27.7 °C 68.5 °F /  20.3 °C 77 °F /  25 °C
Punt de rosada: 65.7 °F /  18.7 °C 46.8 °F /  8.2 °C 60.8 °F /  16 °C
Humitat: 79 % 33 % 59 %
Wind Speed: 16.8 mph /  27.0 km/h - 5.9 mph /  9.5 km/h
RĂ fegues de vent: 16.8 mph /  27.0 km/h - -
Vent:- - SE
Pression baro: 29.9 in /  1013.8 hPa 29.8 in /  1009.0 hPa -
Precipitacions: 0.04 in /  1.0 mm    
Historical Graphs
 
 
Dades de taula per Juliol 8, 2017
Temps Temperatura Punt de rosada Pression baro Vent Wind Speed RĂ fegues de vent Humitat Rainfall Rate (Hourly)
00:00 77.4 °F /  25.2 °C 52.5 °F /  11.4 °C 29.9 in /  1013.8 hPa East 2.3 mph /  3.7 km/h 2.3 mph /  3.7 km/h 42 % 0 in /  0.0 mm
10:38 75.7 °F /  24.3 °C 48.4 °F /  9.1 °C 29.9 in /  1013.8 hPa SE 1.2 mph /  1.9 km/h   38 % 0 in /  0.0 mm
10:43 75.7 °F /  24.3 °C 48.4 °F /  9.1 °C 29.9 in /  1013.8 hPa SE 2.3 mph /  3.7 km/h   38 % 0 in /  0.0 mm
10:48 75.7 °F /  24.3 °C 48.4 °F /  9.1 °C 29.9 in /  1013.8 hPa SE 2.3 mph /  3.7 km/h   38 % 0 in /  0.0 mm
10:53 77.2 °F /  25.1 °C 47.5 °F /  8.6 °C 29.9 in /  1011.7 hPa ENE 3.5 mph /  5.6 km/h 3.5 mph /  5.6 km/h 35 % 0 in /  0.0 mm
10:58 77.7 °F /  25.4 °C 47.1 °F /  8.4 °C 29.9 in /  1011.7 hPa NNW 2.3 mph /  3.7 km/h 2.3 mph /  3.7 km/h 34 % 0 in /  0.0 mm
10:59 77.7 °F /  25.4 °C 47.1 °F /  8.4 °C 29.9 in /  1011.7 hPa NNW 2.3 mph /  3.7 km/h 2.3 mph /  3.7 km/h 34 % 0 in /  0.0 mm
11:04 78.3 °F /  25.7 °C 46.8 °F /  8.2 °C 29.9 in /  1011.7 hPa NE 6.2 mph /  10.0 km/h 6.2 mph /  10.0 km/h 33 % 0 in /  0.0 mm
11:09 77.2 °F /  25.1 °C 48.2 °F /  9.0 °C 29.9 in /  1011.7 hPa NNE 4.6 mph /  7.4 km/h 4.6 mph /  7.4 km/h 36 % 0 in /  0.0 mm
11:14 75.2 °F /  24.0 °C 49.3 °F /  9.6 °C 29.9 in /  1011.7 hPa ENE 3.5 mph /  5.6 km/h 3.5 mph /  5.6 km/h 40 % 0 in /  0.0 mm
11:19 74.8 °F /  23.8 °C 49.6 °F /  9.8 °C 29.9 in /  1011.7 hPa NNE 5.8 mph /  9.3 km/h 5.8 mph /  9.3 km/h 41 % 0 in /  0.0 mm
11:24 75.9 °F /  24.4 °C 49.8 °F /  9.9 °C 29.9 in /  1011.7 hPa ENE 6.9 mph /  11.1 km/h 6.9 mph /  11.1 km/h 40 % 0 in /  0.0 mm
11:29 77.2 °F /  25.1 °C 49.6 °F /  9.8 °C 29.9 in /  1011.7 hPa ESE 4.6 mph /  7.4 km/h 4.6 mph /  7.4 km/h 38 % 0 in /  0.0 mm
11:34 77.2 °F /  25.1 °C 50.4 °F /  10.2 °C 29.9 in /  1011.7 hPa East 2.3 mph /  3.7 km/h 2.3 mph /  3.7 km/h 39 % 0 in /  0.0 mm
11:39 78.6 °F /  25.9 °C 50.2 °F /  10.1 °C 29.9 in /  1011.7 hPa East 2.3 mph /  3.7 km/h 2.3 mph /  3.7 km/h 37 % 0 in /  0.0 mm
11:44 78.1 °F /  25.6 °C 52.5 °F /  11.4 °C 29.9 in /  1011.7 hPa SW 3.6 mph /  5.8 km/h 3.6 mph /  5.8 km/h 41 % 0 in /  0.0 mm
11:49 76.3 °F /  24.6 °C 52.2 °F /  11.2 °C 29.9 in /  1011.7 hPa West 2.3 mph /  3.7 km/h 2.4 mph /  3.9 km/h 43 % 0 in /  0.0 mm
11:54 76.6 °F /  24.8 °C 51.3 °F /  10.7 °C 29.9 in /  1011.7 hPa WNW 1.4 mph /  2.3 km/h 1.4 mph /  2.3 km/h 41 % 0 in /  0.0 mm
11:59 77.5 °F /  25.3 °C 50.5 °F /  10.3 °C 29.9 in /  1011.7 hPa West 1.6 mph /  2.6 km/h   39 % 0 in /  0.0 mm
12:04 77.9 °F /  25.5 °C 52.3 °F /  11.3 °C 29.9 in /  1011.7 hPa West 1.2 mph /  1.9 km/h   41 % 0 in /  0.0 mm
12:09 78.3 °F /  25.7 °C 52 °F /  11.1 °C 29.8 in /  1010.7 hPa WSW 2.4 mph /  3.9 km/h 2.4 mph /  3.9 km/h 40 % 0 in /  0.0 mm
12:14 78.6 °F /  25.9 °C 51.6 °F /  10.9 °C 29.8 in /  1010.7 hPa SW 2.3 mph /  3.7 km/h 2.3 mph /  3.7 km/h 39 % 0 in /  0.0 mm
12:19 79.3 °F /  26.3 °C 52.2 °F /  11.2 °C 29.8 in /  1010.7 hPa West 3.5 mph /  5.6 km/h 3.5 mph /  5.6 km/h 39 % 0 in /  0.0 mm
12:24 79.2 °F /  26.2 °C 52.2 °F /  11.2 °C 29.9 in /  1011.7 hPa WSW 1.2 mph /  1.9 km/h 1.4 mph /  2.3 km/h 39 % 0 in /  0.0 mm
12:29 79.2 °F /  26.2 °C 52.2 °F /  11.2 °C 29.9 in /  1011.7 hPa WSW 3.1 mph /  5.0 km/h 3.1 mph /  5.0 km/h 39 % 0 in /  0.0 mm
12:34 79.2 °F /  26.2 °C 52.2 °F /  11.2 °C 29.9 in /  1011.7 hPa SW 7.4 mph /  11.9 km/h 7.4 mph /  11.9 km/h 39 % 0 in /  0.0 mm
12:39 79.3 °F /  26.3 °C 52.2 °F /  11.2 °C 29.9 in /  1011.7 hPa SW 6.9 mph /  11.1 km/h 6.9 mph /  11.1 km/h 39 % 0 in /  0.0 mm
12:44 78.6 °F /  25.9 °C 52.3 °F /  11.3 °C 29.9 in /  1012.8 hPa South 6.9 mph /  11.1 km/h 6.9 mph /  11.1 km/h 40 % 0 in /  0.0 mm
12:49 79.2 °F /  26.2 °C 51.4 °F /  10.8 °C 29.9 in /  1012.8 hPa ESE 8.1 mph /  13.0 km/h 8.1 mph /  13.0 km/h 38 % 0 in /  0.0 mm
12:54 78.1 °F /  25.6 °C 51.8 °F /  11.0 °C 29.9 in /  1011.7 hPa NNW 4.6 mph /  7.4 km/h 4.6 mph /  7.4 km/h 40 % 0 in /  0.0 mm
12:59 77.2 °F /  25.1 °C 51.6 °F /  10.9 °C 29.9 in /  1011.7 hPa SSW 4.6 mph /  7.4 km/h 4.6 mph /  7.4 km/h 41 % 0 in /  0.0 mm
13:04 75 °F /  23.9 °C 51.6 °F /  10.9 °C 29.9 in /  1011.7 hPa WSW 4.6 mph /  7.4 km/h 4.6 mph /  7.4 km/h 44 % 0.04 in /  1.0 mm
13:09 74.3 °F /  23.5 °C 52.2 °F /  11.2 °C 29.9 in /  1012.8 hPa SSE 2.3 mph /  3.7 km/h 2.3 mph /  3.7 km/h 46 % 0.04 in /  1.0 mm
13:14 74.1 °F /  23.4 °C 53.8 °F /  12.1 °C 29.9 in /  1012.8 hPa South 2.3 mph /  3.7 km/h 2.3 mph /  3.7 km/h 49 % 0.04 in /  1.0 mm
13:19 74.5 °F /  23.6 °C 54.7 °F /  12.6 °C 29.9 in /  1012.8 hPa SSE 2 mph /  3.2 km/h 2 mph /  3.2 km/h 50 % 0.04 in /  1.0 mm
13:24 75 °F /  23.9 °C 56.1 °F /  13.4 °C 29.9 in /  1012.8 hPa South 2.3 mph /  3.7 km/h 2.3 mph /  3.7 km/h 52 % 0.04 in /  1.0 mm
13:29 75.4 °F /  24.1 °C 57 °F /  13.9 °C 29.9 in /  1012.8 hPa ESE 3.5 mph /  5.6 km/h 3.5 mph /  5.6 km/h 53 % 0.04 in /  1.0 mm
13:34 75.7 °F /  24.3 °C 57.4 °F /  14.1 °C 29.9 in /  1012.8 hPa ESE 3.5 mph /  5.6 km/h 3.5 mph /  5.6 km/h 53 % 0.04 in /  1.0 mm
13:39 76.3 °F /  24.6 °C 58.5 °F /  14.7 °C 29.9 in /  1012.8 hPa ESE 6.2 mph /  10.0 km/h 6.2 mph /  10.0 km/h 54 % 0.04 in /  1.0 mm
13:44 76.5 °F /  24.7 °C 59.2 °F /  15.1 °C 29.9 in /  1012.8 hPa ESE 6.9 mph /  11.1 km/h 6.9 mph /  11.1 km/h 55 % 0.04 in /  1.0 mm
13:49 76.8 °F /  24.9 °C 59.4 °F /  15.2 °C 29.9 in /  1012.8 hPa East 8.1 mph /  13.0 km/h 8.1 mph /  13.0 km/h 55 % 0.04 in /  1.0 mm
13:54 77 °F /  25.0 °C 59.2 °F /  15.1 °C 29.9 in /  1013.8 hPa ESE 10.4 mph /  16.7 km/h 10.4 mph /  16.7 km/h 54 % 0.04 in /  1.0 mm
13:59 77.2 °F /  25.1 °C 58.6 °F /  14.8 °C 29.9 in /  1013.8 hPa NNE 10.4 mph /  16.7 km/h 10.4 mph /  16.7 km/h 53 % 0.04 in /  1.0 mm
14:04 77.4 °F /  25.2 °C 58.8 °F /  14.9 °C 29.9 in /  1013.8 hPa SE 8.1 mph /  13.0 km/h 8.1 mph /  13.0 km/h 53 % 0 in /  0.0 mm
14:09 77.5 °F /  25.3 °C 59.2 °F /  15.1 °C 29.9 in /  1013.8 hPa East 8.1 mph /  13.0 km/h 8.1 mph /  13.0 km/h 53 % 0 in /  0.0 mm
14:14 77.9 °F /  25.5 °C 59.4 °F /  15.2 °C 29.9 in /  1013.8 hPa East 11.5 mph /  18.5 km/h 11.5 mph /  18.5 km/h 53 % 0 in /  0.0 mm
14:19 78.1 °F /  25.6 °C 59.5 °F /  15.3 °C 29.9 in /  1013.8 hPa SSE 11.5 mph /  18.5 km/h 11.5 mph /  18.5 km/h 53 % 0 in /  0.0 mm
14:24 78.1 °F /  25.6 °C 59.5 °F /  15.3 °C 29.9 in /  1012.8 hPa NE 15 mph /  24.1 km/h 15 mph /  24.1 km/h 53 % 0 in /  0.0 mm
14:29 77.9 °F /  25.5 °C 60.4 °F /  15.8 °C 29.9 in /  1012.8 hPa ESE 9.2 mph /  14.8 km/h 9.2 mph /  14.8 km/h 55 % 0 in /  0.0 mm
14:34 78.1 °F /  25.6 °C 60.6 °F /  15.9 °C 29.9 in /  1012.8 hPa South 9.8 mph /  15.8 km/h 9.8 mph /  15.8 km/h 55 % 0 in /  0.0 mm
14:39 78.4 °F /  25.8 °C 60.4 °F /  15.8 °C 29.9 in /  1012.8 hPa SE 11.8 mph /  19.0 km/h 11.8 mph /  19.0 km/h 54 % 0 in /  0.0 mm
14:44 79 °F /  26.1 °C 61.3 °F /  16.3 °C 29.9 in /  1012.8 hPa East 11.5 mph /  18.5 km/h 11.5 mph /  18.5 km/h 55 % 0 in /  0.0 mm
14:49 79 °F /  26.1 °C 60.4 °F /  15.8 °C 29.9 in /  1012.8 hPa ENE 11.5 mph /  18.5 km/h 11.5 mph /  18.5 km/h 53 % 0 in /  0.0 mm
14:54 78.8 °F /  26.0 °C 60.3 °F /  15.7 °C 29.9 in /  1012.8 hPa ESE 8.1 mph /  13.0 km/h 8.1 mph /  13.0 km/h 53 % 0 in /  0.0 mm
14:59 78.8 °F /  26.0 °C 60.3 °F /  15.7 °C 29.9 in /  1012.8 hPa ENE 10 mph /  16.1 km/h 10 mph /  16.1 km/h 53 % 0 in /  0.0 mm
15:04 78.8 °F /  26.0 °C 60.3 °F /  15.7 °C 29.9 in /  1012.8 hPa East 14.5 mph /  23.3 km/h 14.5 mph /  23.3 km/h 53 % 0 in /  0.0 mm
15:09 78.6 °F /  25.9 °C 60.1 °F /  15.6 °C 29.9 in /  1012.8 hPa ENE 10.4 mph /  16.7 km/h 10.4 mph /  16.7 km/h 53 % 0 in /  0.0 mm
15:14 78.1 °F /  25.6 °C 60.6 °F /  15.9 °C 29.9 in /  1012.8 hPa ENE 11.5 mph /  18.5 km/h 11.5 mph /  18.5 km/h 55 % 0 in /  0.0 mm
15:19 77.7 °F /  25.4 °C 60.8 °F /  16.0 °C 29.9 in /  1012.8 hPa NNE 8.1 mph /  13.0 km/h 8.1 mph /  13.0 km/h 56 % 0 in /  0.0 mm
15:24 78.1 °F /  25.6 °C 61.2 °F /  16.2 °C 29.9 in /  1012.8 hPa ENE 8.1 mph /  13.0 km/h 8.1 mph /  13.0 km/h 56 % 0 in /  0.0 mm
15:29 78.3 °F /  25.7 °C 61.3 °F /  16.3 °C 29.9 in /  1012.8 hPa East 10.4 mph /  16.7 km/h 10.4 mph /  16.7 km/h 56 % 0 in /  0.0 mm
15:34 78.6 °F /  25.9 °C 61.5 °F /  16.4 °C 29.9 in /  1012.8 hPa ESE 11.5 mph /  18.5 km/h 11.5 mph /  18.5 km/h 56 % 0 in /  0.0 mm
15:39 78.8 °F /  26.0 °C 61.9 °F /  16.6 °C 29.9 in /  1011.7 hPa East 10.4 mph /  16.7 km/h 10.4 mph /  16.7 km/h 56 % 0 in /  0.0 mm
15:44 79.2 °F /  26.2 °C 62.1 °F /  16.7 °C 29.9 in /  1011.7 hPa SE 16.8 mph /  27.0 km/h 16.8 mph /  27.0 km/h 56 % 0 in /  0.0 mm
15:49 79 °F /  26.1 °C 61.9 °F /  16.6 °C 29.9 in /  1011.7 hPa ESE 10.7 mph /  17.2 km/h 10.7 mph /  17.2 km/h 56 % 0 in /  0.0 mm
15:54 79 °F /  26.1 °C 61.9 °F /  16.6 °C 29.9 in /  1011.7 hPa ENE 13.8 mph /  22.2 km/h 13.8 mph /  22.2 km/h 56 % 0 in /  0.0 mm
15:59 79.9 °F /  26.6 °C 62.8 °F /  17.1 °C 29.9 in /  1011.7 hPa SE 8.1 mph /  13.0 km/h 8.1 mph /  13.0 km/h 56 % 0 in /  0.0 mm
16:04 80.4 °F /  26.9 °C 63.3 °F /  17.4 °C 29.9 in /  1011.7 hPa ESE 11.5 mph /  18.5 km/h 11.5 mph /  18.5 km/h 56 % 0 in /  0.0 mm
16:09 80.6 °F /  27.0 °C 63 °F /  17.2 °C 29.9 in /  1011.7 hPa East 15 mph /  24.1 km/h 15 mph /  24.1 km/h 55 % 0 in /  0.0 mm
16:14 80.4 °F /  26.9 °C 63.3 °F /  17.4 °C 29.9 in /  1011.7 hPa East 12.3 mph /  19.8 km/h 12.3 mph /  19.8 km/h 56 % 0 in /  0.0 mm
16:19 80.6 °F /  27.0 °C 63 °F /  17.2 °C 29.9 in /  1011.7 hPa ENE 9.2 mph /  14.8 km/h 9.2 mph /  14.8 km/h 55 % 0 in /  0.0 mm
16:24 79.9 °F /  26.6 °C 63.3 °F /  17.4 °C 29.9 in /  1011.7 hPa East 12.7 mph /  20.4 km/h 12.7 mph /  20.4 km/h 57 % 0 in /  0.0 mm
16:29 80.1 °F /  26.7 °C 63.5 °F /  17.5 °C 29.9 in /  1011.7 hPa East 12.7 mph /  20.4 km/h 12.7 mph /  20.4 km/h 57 % 0 in /  0.0 mm
16:34 80.1 °F /  26.7 °C 63.5 °F /  17.5 °C 29.9 in /  1011.7 hPa SE 13.8 mph /  22.2 km/h 13.8 mph /  22.2 km/h 57 % 0 in /  0.0 mm
16:39 80.1 °F /  26.7 °C 63.5 °F /  17.5 °C 29.9 in /  1011.7 hPa East 13.8 mph /  22.2 km/h 13.8 mph /  22.2 km/h 57 % 0 in /  0.0 mm
16:44 79.9 °F /  26.6 °C 63.3 °F /  17.4 °C 29.9 in /  1011.7 hPa ESE 15 mph /  24.1 km/h 15 mph /  24.1 km/h 57 % 0 in /  0.0 mm
16:49 80.2 °F /  26.8 °C 64 °F /  17.8 °C 29.9 in /  1011.7 hPa ESE 12.7 mph /  20.4 km/h 12.7 mph /  20.4 km/h 58 % 0 in /  0.0 mm
16:54 79.9 °F /  26.6 °C 63.3 °F /  17.4 °C 29.9 in /  1011.7 hPa ESE 13.7 mph /  22.0 km/h 13.7 mph /  22.0 km/h 57 % 0 in /  0.0 mm
16:59 79.9 °F /  26.6 °C 63.9 °F /  17.7 °C 29.9 in /  1011.7 hPa ESE 14 mph /  22.5 km/h 14 mph /  22.5 km/h 58 % 0 in /  0.0 mm
17:04 80.2 °F /  26.8 °C 63.7 °F /  17.6 °C 29.9 in /  1011.7 hPa ENE 9.2 mph /  14.8 km/h 9.2 mph /  14.8 km/h 57 % 0 in /  0.0 mm
17:09 80.2 °F /  26.8 °C 63.7 °F /  17.6 °C 29.9 in /  1011.7 hPa ENE 8.1 mph /  13.0 km/h 8.1 mph /  13.0 km/h 57 % 0 in /  0.0 mm
17:14 80.4 °F /  26.9 °C 63.9 °F /  17.7 °C 29.9 in /  1011.7 hPa ESE 10.4 mph /  16.7 km/h 10.4 mph /  16.7 km/h 57 % 0 in /  0.0 mm
17:19 80.8 °F /  27.1 °C 63.1 °F /  17.3 °C 29.9 in /  1011.7 hPa East 12.5 mph /  20.1 km/h 12.5 mph /  20.1 km/h 55 % 0 in /  0.0 mm
17:24 81 °F /  27.2 °C 63.3 °F /  17.4 °C 29.9 in /  1011.7 hPa ESE 12.7 mph /  20.4 km/h 12.7 mph /  20.4 km/h 55 % 0 in /  0.0 mm
17:29 80.8 °F /  27.1 °C 63.1 °F /  17.3 °C 29.9 in /  1011.7 hPa East 11.5 mph /  18.5 km/h 11.5 mph /  18.5 km/h 55 % 0 in /  0.0 mm
17:34 81.3 °F /  27.4 °C 63.7 °F /  17.6 °C 29.9 in /  1011.7 hPa ESE 9.2 mph /  14.8 km/h 9.2 mph /  14.8 km/h 55 % 0 in /  0.0 mm
17:39 81.1 °F /  27.3 °C 62.4 °F /  16.9 °C 29.8 in /  1010.7 hPa East 11.5 mph /  18.5 km/h 11.5 mph /  18.5 km/h 53 % 0 in /  0.0 mm
17:44 81.3 °F /  27.4 °C 62.6 °F /  17.0 °C 29.8 in /  1010.7 hPa NE 12.7 mph /  20.4 km/h 12.7 mph /  20.4 km/h 53 % 0 in /  0.0 mm
17:49 81.1 °F /  27.3 °C 62.4 °F /  16.9 °C 29.8 in /  1010.7 hPa ENE 10.4 mph /  16.7 km/h 10.4 mph /  16.7 km/h 53 % 0 in /  0.0 mm
17:54 81.3 °F /  27.4 °C 62.6 °F /  17.0 °C 29.8 in /  1010.7 hPa ENE 9.2 mph /  14.8 km/h 9.2 mph /  14.8 km/h 53 % 0 in /  0.0 mm
17:59 81.1 °F /  27.3 °C 63 °F /  17.2 °C 29.8 in /  1010.7 hPa ENE 9.2 mph /  14.8 km/h 9.2 mph /  14.8 km/h 54 % 0 in /  0.0 mm
18:04 81.5 °F /  27.5 °C 63.3 °F /  17.4 °C 29.8 in /  1010.7 hPa NE 8.1 mph /  13.0 km/h 8.1 mph /  13.0 km/h 54 % 0 in /  0.0 mm
18:09 81.7 °F /  27.6 °C 63 °F /  17.2 °C 29.8 in /  1010.0 hPa East 10.4 mph /  16.7 km/h 10.4 mph /  16.7 km/h 53 % 0 in /  0.0 mm
18:14 81.9 °F /  27.7 °C 63.1 °F /  17.3 °C 29.8 in /  1010.0 hPa SE 8.7 mph /  14.0 km/h 8.7 mph /  14.0 km/h 53 % 0 in /  0.0 mm
18:15 81.9 °F /  27.7 °C 63.1 °F /  17.3 °C 29.8 in /  1010.0 hPa ESE 10.4 mph /  16.7 km/h 10.4 mph /  16.7 km/h 53 % 0 in /  0.0 mm
18:20 81.3 °F /  27.4 °C 62.6 °F /  17.0 °C 29.8 in /  1010.0 hPa ENE 5.8 mph /  9.3 km/h 5.8 mph /  9.3 km/h 53 % 0 in /  0.0 mm
18:25 81.5 °F /  27.5 °C 62.8 °F /  17.1 °C 29.8 in /  1010.7 hPa ESE 9.2 mph /  14.8 km/h 9.2 mph /  14.8 km/h 53 % 0 in /  0.0 mm
18:28 81.7 °F /  27.6 °C 63 °F /  17.2 °C 29.8 in /  1010.7 hPa ESE 6.9 mph /  11.1 km/h 6.9 mph /  11.1 km/h 53 % 0 in /  0.0 mm
18:33 81.5 °F /  27.5 °C 62.8 °F /  17.1 °C 29.8 in /  1010.7 hPa ESE 10.4 mph /  16.7 km/h 10.4 mph /  16.7 km/h 53 % 0 in /  0.0 mm
18:38 81.5 °F /  27.5 °C 62.8 °F /  17.1 °C 29.8 in /  1010.7 hPa ESE 9.2 mph /  14.8 km/h 9.2 mph /  14.8 km/h 53 % 0 in /  0.0 mm
18:43 81.3 °F /  27.4 °C 63.1 °F /  17.3 °C 29.8 in /  1010.7 hPa ESE 6.9 mph /  11.1 km/h 6.9 mph /  11.1 km/h 54 % 0 in /  0.0 mm
18:48 81.7 °F /  27.6 °C 63.3 °F /  17.4 °C 29.8 in /  1010.7 hPa ESE 6.9 mph /  11.1 km/h 6.9 mph /  11.1 km/h 54 % 0 in /  0.0 mm
18:53 81.5 °F /  27.5 °C 63.3 °F /  17.4 °C 29.8 in /  1010.7 hPa ESE 8.1 mph /  13.0 km/h 8.1 mph /  13.0 km/h 54 % 0 in /  0.0 mm
18:58 81.5 °F /  27.5 °C 63.3 °F /  17.4 °C 29.8 in /  1010.7 hPa East 5.8 mph /  9.3 km/h 6.4 mph /  10.3 km/h 54 % 0 in /  0.0 mm
19:03 81.7 °F /  27.6 °C 63.3 °F /  17.4 °C 29.8 in /  1010.7 hPa ESE 6.9 mph /  11.1 km/h 6.9 mph /  11.1 km/h 54 % 0 in /  0.0 mm
19:08 81.3 °F /  27.4 °C 62.6 °F /  17.0 °C 29.8 in /  1010.7 hPa ENE 4.6 mph /  7.4 km/h 4.6 mph /  7.4 km/h 53 % 0 in /  0.0 mm
19:13 81.3 °F /  27.4 °C 63.1 °F /  17.3 °C 29.8 in /  1010.0 hPa ESE 5.8 mph /  9.3 km/h 5.9 mph /  9.5 km/h 54 % 0 in /  0.0 mm
19:18 81.1 °F /  27.3 °C 63 °F /  17.2 °C 29.8 in /  1010.0 hPa NE 8.1 mph /  13.0 km/h 8.1 mph /  13.0 km/h 54 % 0 in /  0.0 mm
19:23 81 °F /  27.2 °C 63.3 °F /  17.4 °C 29.8 in /  1010.0 hPa ESE 7.6 mph /  12.2 km/h 7.6 mph /  12.2 km/h 55 % 0 in /  0.0 mm
19:28 80.6 °F /  27.0 °C 63.5 °F /  17.5 °C 29.8 in /  1010.0 hPa ESE 8.1 mph /  13.0 km/h 8.1 mph /  13.0 km/h 56 % 0 in /  0.0 mm
19:33 80.6 °F /  27.0 °C 64 °F /  17.8 °C 29.8 in /  1010.0 hPa SSE 6.9 mph /  11.1 km/h 6.9 mph /  11.1 km/h 57 % 0 in /  0.0 mm
19:38 80.4 °F /  26.9 °C 64.2 °F /  17.9 °C 29.8 in /  1010.0 hPa ESE 6.9 mph /  11.1 km/h 6.9 mph /  11.1 km/h 58 % 0 in /  0.0 mm
19:40 72.7 °F /  22.6 °C 65.1 °F /  18.4 °C 29.9 in /  1011.7 hPa WNW 1 mph /  1.6 km/h 2 mph /  3.2 km/h 77 % 0 in /  0.0 mm
19:43 80.4 °F /  26.9 °C 64.2 °F /  17.9 °C 29.8 in /  1010.0 hPa ESE 9.2 mph /  14.8 km/h 9.2 mph /  14.8 km/h 58 % 0 in /  0.0 mm
19:48 80.2 °F /  26.8 °C 64 °F /  17.8 °C 29.8 in /  1010.0 hPa SE 4.9 mph /  7.9 km/h 4.9 mph /  7.9 km/h 58 % 0 in /  0.0 mm
19:50 72.7 °F /  22.6 °C 65.1 °F /  18.4 °C 29.8 in /  1010.7 hPa NE 1 mph /  1.6 km/h 1 mph /  1.6 km/h 77 % 0 in /  0.0 mm
19:53 79.9 °F /  26.6 °C 63.9 °F /  17.7 °C 29.8 in /  1010.0 hPa ESE 4.6 mph /  7.4 km/h 4.6 mph /  7.4 km/h 58 % 0 in /  0.0 mm
19:58 79.7 °F /  26.5 °C 64 °F /  17.8 °C 29.8 in /  1010.0 hPa ESE 5.8 mph /  9.3 km/h 5.8 mph /  9.3 km/h 59 % 0 in /  0.0 mm
20:00 72.5 °F /  22.5 °C 64.9 °F /  18.3 °C 29.8 in /  1010.7 hPa Calm   1 mph /  1.6 km/h 77 % 0 in /  0.0 mm
20:03 79.3 °F /  26.3 °C 63.9 °F /  17.7 °C 29.8 in /  1010.0 hPa ESE 5.8 mph /  9.3 km/h 5.8 mph /  9.3 km/h 59 % 0 in /  0.0 mm
20:08 79.2 °F /  26.2 °C 64 °F /  17.8 °C 29.8 in /  1010.0 hPa ESE 4.6 mph /  7.4 km/h 4.6 mph /  7.4 km/h 60 % 0 in /  0.0 mm
20:10 72.5 °F /  22.5 °C 64.9 °F /  18.3 °C 29.8 in /  1010.7 hPa Calm   1 mph /  1.6 km/h 77 % 0 in /  0.0 mm
20:13 78.8 °F /  26.0 °C 63.7 °F /  17.6 °C 29.8 in /  1010.0 hPa ESE 6.9 mph /  11.1 km/h 6.9 mph /  11.1 km/h 60 % 0 in /  0.0 mm
20:18 78.6 °F /  25.9 °C 63.7 °F /  17.6 °C 29.8 in /  1010.0 hPa East 4.6 mph /  7.4 km/h 4.6 mph /  7.4 km/h 60 % 0 in /  0.0 mm
20:20 72.5 °F /  22.5 °C 65.1 °F /  18.4 °C 29.8 in /  1010.7 hPa NNE 1 mph /  1.6 km/h 1 mph /  1.6 km/h 78 % 0 in /  0.0 mm
20:23 78.4 °F /  25.8 °C 63.9 °F /  17.7 °C 29.8 in /  1010.0 hPa ESE 6.4 mph /  10.3 km/h 6.4 mph /  10.3 km/h 61 % 0 in /  0.0 mm
20:28 77.9 °F /  25.5 °C 63.9 °F /  17.7 °C 29.8 in /  1010.0 hPa ENE 6.9 mph /  11.1 km/h 6.9 mph /  11.1 km/h 62 % 0 in /  0.0 mm
20:30 72.3 °F /  22.4 °C 65.1 °F /  18.4 °C 29.8 in /  1010.7 hPa Calm   2 mph /  3.2 km/h 78 % 0 in /  0.0 mm
20:33 77.7 °F /  25.4 °C 63.7 °F /  17.6 °C 29.8 in /  1010.0 hPa ENE 9.2 mph /  14.8 km/h 9.2 mph /  14.8 km/h 62 % 0 in /  0.0 mm
20:38 77.5 °F /  25.3 °C 63.9 °F /  17.7 °C 29.8 in /  1010.0 hPa East 5.8 mph /  9.3 km/h 5.8 mph /  9.3 km/h 63 % 0 in /  0.0 mm
20:40 72.1 °F /  22.3 °C 64.9 °F /  18.3 °C 29.8 in /  1010.7 hPa Calm   1 mph /  1.6 km/h 78 % 0 in /  0.0 mm
20:43 77.2 °F /  25.1 °C 64 °F /  17.8 °C 29.8 in /  1010.0 hPa ESE 8.1 mph /  13.0 km/h 8.1 mph /  13.0 km/h 64 % 0 in /  0.0 mm
20:48 77 °F /  25.0 °C 63.9 °F /  17.7 °C 29.8 in /  1010.0 hPa ESE 8.5 mph /  13.7 km/h 8.5 mph /  13.7 km/h 64 % 0 in /  0.0 mm
20:50 72 °F /  22.2 °C 64.8 °F /  18.2 °C 29.8 in /  1010.7 hPa Calm     78 % 0 in /  0.0 mm
20:53 76.6 °F /  24.8 °C 64.9 °F /  18.3 °C 29.8 in /  1010.0 hPa ESE 8.1 mph /  13.0 km/h 8.1 mph /  13.0 km/h 67 % 0 in /  0.0 mm
20:58 76.5 °F /  24.7 °C 64.8 °F /  18.2 °C 29.8 in /  1010.0 hPa ESE 5.8 mph /  9.3 km/h 5.8 mph /  9.3 km/h 67 % 0 in /  0.0 mm
21:00 72 °F /  22.2 °C 64.8 °F /  18.2 °C 29.8 in /  1010.7 hPa Calm   1 mph /  1.6 km/h 78 % 0 in /  0.0 mm
21:03 76.5 °F /  24.7 °C 64.8 °F /  18.2 °C 29.8 in /  1010.0 hPa ESE 4.6 mph /  7.4 km/h 4.6 mph /  7.4 km/h 67 % 0 in /  0.0 mm
21:08 76.3 °F /  24.6 °C 64.9 °F /  18.3 °C 29.8 in /  1010.0 hPa ENE 6.9 mph /  11.1 km/h 6.9 mph /  11.1 km/h 68 % 0 in /  0.0 mm
21:10 71.8 °F /  22.1 °C 64.6 °F /  18.1 °C 29.8 in /  1010.7 hPa WNW 1 mph /  1.6 km/h 1 mph /  1.6 km/h 78 % 0 in /  0.0 mm
21:13 76.1 °F /  24.5 °C 64.8 °F /  18.2 °C 29.8 in /  1010.0 hPa SE 4 mph /  6.4 km/h 4 mph /  6.4 km/h 68 % 0 in /  0.0 mm
21:18 75.9 °F /  24.4 °C 64.6 °F /  18.1 °C 29.8 in /  1010.0 hPa ESE 4.6 mph /  7.4 km/h 4.6 mph /  7.4 km/h 68 % 0 in /  0.0 mm
21:20 71.4 °F /  21.9 °C 64.6 °F /  18.1 °C 29.8 in /  1010.7 hPa Calm   2 mph /  3.2 km/h 79 % 0 in /  0.0 mm
21:23 75.7 °F /  24.3 °C 64.8 °F /  18.2 °C 29.8 in /  1010.0 hPa ESE 6.2 mph /  10.0 km/h 6.2 mph /  10.0 km/h 69 % 0 in /  0.0 mm
21:28 75.7 °F /  24.3 °C 65.3 °F /  18.5 °C 29.8 in /  1009.0 hPa East 6.9 mph /  11.1 km/h 6.9 mph /  11.1 km/h 70 % 0 in /  0.0 mm
21:30 71.6 °F /  22.0 °C 64.8 °F /  18.2 °C 29.8 in /  1010.7 hPa Calm   2 mph /  3.2 km/h 79 % 0 in /  0.0 mm
21:33 75.6 °F /  24.2 °C 65.1 °F /  18.4 °C 29.8 in /  1009.0 hPa ENE 6.9 mph /  11.1 km/h 6.9 mph /  11.1 km/h 70 % 0 in /  0.0 mm
21:38 75.4 °F /  24.1 °C 64.9 °F /  18.3 °C 29.8 in /  1009.0 hPa ENE 4.6 mph /  7.4 km/h 4.6 mph /  7.4 km/h 70 % 0 in /  0.0 mm
21:40 71.2 °F /  21.8 °C 63.7 °F /  17.6 °C 29.8 in /  1010.7 hPa SE 1 mph /  1.6 km/h 2 mph /  3.2 km/h 77 % 0 in /  0.0 mm
21:43 75.4 °F /  24.1 °C 64.9 °F /  18.3 °C 29.8 in /  1010.0 hPa East 5.6 mph /  9.0 km/h 5.6 mph /  9.0 km/h 70 % 0 in /  0.0 mm
21:48 75.2 °F /  24.0 °C 64.8 °F /  18.2 °C 29.8 in /  1010.0 hPa ESE 5.8 mph /  9.3 km/h 5.8 mph /  9.3 km/h 70 % 0 in /  0.0 mm
21:50 71.2 °F /  21.8 °C 63.7 °F /  17.6 °C 29.8 in /  1010.0 hPa SW 1 mph /  1.6 km/h 2 mph /  3.2 km/h 77 % 0 in /  0.0 mm
21:53 75.2 °F /  24.0 °C 65.1 °F /  18.4 °C 29.8 in /  1010.0 hPa ESE 4.6 mph /  7.4 km/h 4.6 mph /  7.4 km/h 71 % 0 in /  0.0 mm
21:58 75 °F /  23.9 °C 65.5 °F /  18.6 °C 29.8 in /  1010.0 hPa NNE 3.5 mph /  5.6 km/h 3.5 mph /  5.6 km/h 72 % 0 in /  0.0 mm
22:00 71.1 °F /  21.7 °C 62.8 °F /  17.1 °C 29.8 in /  1010.0 hPa WSW 3 mph /  4.8 km/h 3 mph /  4.8 km/h 75 % 0 in /  0.0 mm
22:03 75 °F /  23.9 °C 64.9 °F /  18.3 °C 29.8 in /  1010.0 hPa ENE 2.3 mph /  3.7 km/h 2.3 mph /  3.7 km/h 71 % 0 in /  0.0 mm
22:08 74.8 °F /  23.8 °C 65.1 °F /  18.4 °C 29.8 in /  1010.0 hPa North 2.3 mph /  3.7 km/h 2.3 mph /  3.7 km/h 72 % 0 in /  0.0 mm
22:10 70.9 °F /  21.6 °C 62.6 °F /  17.0 °C 29.8 in /  1010.0 hPa WSW 1 mph /  1.6 km/h 2 mph /  3.2 km/h 75 % 0 in /  0.0 mm
22:13 74.7 °F /  23.7 °C 64.9 °F /  18.3 °C 29.8 in /  1010.7 hPa NE 2.3 mph /  3.7 km/h 2.3 mph /  3.7 km/h 72 % 0 in /  0.0 mm
22:18 74.5 °F /  23.6 °C 64.9 °F /  18.3 °C 29.8 in /  1010.7 hPa East 3.5 mph /  5.6 km/h 3.5 mph /  5.6 km/h 72 % 0 in /  0.0 mm
22:20 70.7 °F /  21.5 °C 61.5 °F /  16.4 °C 29.8 in /  1010.0 hPa Calm   1 mph /  1.6 km/h 73 % 0 in /  0.0 mm
22:23 74.5 °F /  23.6 °C 64.9 °F /  18.3 °C 29.8 in /  1010.7 hPa East 3.5 mph /  5.6 km/h 3.5 mph /  5.6 km/h 72 % 0 in /  0.0 mm
22:28 74.5 °F /  23.6 °C 64.9 °F /  18.3 °C 29.8 in /  1010.7 hPa ENE 2.3 mph /  3.7 km/h 2.3 mph /  3.7 km/h 72 % 0 in /  0.0 mm
22:30 70.9 °F /  21.6 °C 61.3 °F /  16.3 °C 29.8 in /  1010.0 hPa Calm   2 mph /  3.2 km/h 72 % 0 in /  0.0 mm
22:33 74.3 °F /  23.5 °C 64.8 °F /  18.2 °C 29.8 in /  1010.7 hPa ENE 3.5 mph /  5.6 km/h 3.5 mph /  5.6 km/h 72 % 0 in /  0.0 mm
22:38 74.3 °F /  23.5 °C 65.1 °F /  18.4 °C 29.8 in /  1010.7 hPa ENE 2.4 mph /  3.9 km/h 2.4 mph /  3.9 km/h 73 % 0 in /  0.0 mm
22:40 70.5 °F /  21.4 °C 61.2 °F /  16.2 °C 29.8 in /  1010.0 hPa Calm   1 mph /  1.6 km/h 72 % 0 in /  0.0 mm
22:43 74.3 °F /  23.5 °C 65.1 °F /  18.4 °C 29.9 in /  1011.7 hPa ESE 2.4 mph /  3.9 km/h 2.4 mph /  3.9 km/h 73 % 0 in /  0.0 mm
22:48 74.3 °F /  23.5 °C 65.5 °F /  18.6 °C 29.9 in /  1011.7 hPa East 4.6 mph /  7.4 km/h 4.6 mph /  7.4 km/h 74 % 0 in /  0.0 mm
22:50 69.8 °F /  21.0 °C 60.4 °F /  15.8 °C 29.8 in /  1010.0 hPa WSW 1 mph /  1.6 km/h 2 mph /  3.2 km/h 72 % 0 in /  0.0 mm
22:53 74.3 °F /  23.5 °C 65.5 °F /  18.6 °C 29.9 in /  1011.7 hPa SE 3.1 mph /  5.0 km/h 3.1 mph /  5.0 km/h 74 % 0 in /  0.0 mm
22:58 74.1 °F /  23.4 °C 65.3 °F /  18.5 °C 29.9 in /  1011.7 hPa SE 2.3 mph /  3.7 km/h 2.3 mph /  3.7 km/h 74 % 0 in /  0.0 mm
23:00 69.4 °F /  20.8 °C 60.1 °F /  15.6 °C 29.8 in /  1010.0 hPa Calm   2 mph /  3.2 km/h 72 % 0 in /  0.0 mm
23:03 74.1 °F /  23.4 °C 65.3 °F /  18.5 °C 29.9 in /  1011.7 hPa ENE 3.1 mph /  5.0 km/h 3.1 mph /  5.0 km/h 74 % 0 in /  0.0 mm
23:08 74.1 °F /  23.4 °C 65.7 °F /  18.7 °C 29.9 in /  1011.7 hPa East 2.4 mph /  3.9 km/h 2.4 mph /  3.9 km/h 75 % 0 in /  0.0 mm
23:10 69.4 °F /  20.8 °C 60.1 °F /  15.6 °C 29.8 in /  1010.0 hPa SW 2 mph /  3.2 km/h 2 mph /  3.2 km/h 72 % 0 in /  0.0 mm
23:13 73.9 °F /  23.3 °C 65.1 °F /  18.4 °C 29.9 in /  1011.7 hPa SE 2.3 mph /  3.7 km/h 2.3 mph /  3.7 km/h 74 % 0 in /  0.0 mm
23:18 73.8 °F /  23.2 °C 64.9 °F /  18.3 °C 29.9 in /  1011.7 hPa ENE 1.2 mph /  1.9 km/h 1.2 mph /  1.9 km/h 74 % 0 in /  0.0 mm
23:20 69.3 °F /  20.7 °C 59.7 °F /  15.4 °C 29.8 in /  1010.0 hPa WSW 2 mph /  3.2 km/h 4 mph /  6.4 km/h 72 % 0 in /  0.0 mm
23:23 73.6 °F /  23.1 °C 64.8 °F /  18.2 °C 29.9 in /  1011.7 hPa SW 2.3 mph /  3.7 km/h 2.3 mph /  3.7 km/h 74 % 0 in /  0.0 mm
23:28 73.4 °F /  23.0 °C 64.6 °F /  18.1 °C 29.9 in /  1011.7 hPa SW 1.4 mph /  2.3 km/h 1.4 mph /  2.3 km/h 74 % 0 in /  0.0 mm
23:30 69.3 °F /  20.7 °C 59.7 °F /  15.4 °C 29.8 in /  1010.0 hPa WSW 1 mph /  1.6 km/h 3 mph /  4.8 km/h 72 % 0 in /  0.0 mm
23:33 73 °F /  22.8 °C 64.6 °F /  18.1 °C 29.9 in /  1011.7 hPa SW 2.3 mph /  3.7 km/h 2.3 mph /  3.7 km/h 75 % 0 in /  0.0 mm
23:38 73 °F /  22.8 °C 64.6 °F /  18.1 °C 29.9 in /  1011.7 hPa Calm     75 % 0 in /  0.0 mm
23:40 68.9 °F /  20.5 °C 59.5 °F /  15.3 °C 29.8 in /  1010.0 hPa SW 1 mph /  1.6 km/h 2 mph /  3.2 km/h 72 % 0 in /  0.0 mm
23:43 73 °F /  22.8 °C 64.6 °F /  18.1 °C 29.9 in /  1011.7 hPa Calm     75 % 0 in /  0.0 mm
23:48 73 °F /  22.8 °C 64.6 °F /  18.1 °C 29.9 in /  1011.7 hPa SW 2.3 mph /  3.7 km/h 2.3 mph /  3.7 km/h 75 % 0 in /  0.0 mm
23:50 68.5 °F /  20.3 °C 59.2 °F /  15.1 °C 29.8 in /  1009.0 hPa SW 2 mph /  3.2 km/h 2 mph /  3.2 km/h 72 % 0 in /  0.0 mm
23:53 72.9 °F /  22.7 °C 64.6 °F /  18.1 °C 29.9 in /  1011.7 hPa SW 2.3 mph /  3.7 km/h 2.3 mph /  3.7 km/h 75 % 0 in /  0.0 mm
23:58 72.7 °F /  22.6 °C 64.2 °F /  17.9 °C 29.9 in /  1011.7 hPa WSW 2.3 mph /  3.7 km/h 2.3 mph /  3.7 km/h 75 % 0 in /  0.0 mm
Meteo Sesrovires
Elogis d' Weather Underground - 3.5 mb

Guio original per  Jim McMurry - jmcmurry@mwt.net Adaptat per a la plantilla per  Wim van der Kuil - Leuven-Template.eu

Trobareu la nostra informacio del temps tambe a:

Weather Underground

AWEKAS